createdAt,value
2019-01-24T00:04:01.405Z,16.57
2019-01-24T00:08:37.229Z,15.87
2019-01-24T00:13:13.034Z,15.37
2019-01-24T00:17:48.797Z,15.73
2019-01-24T00:22:24.585Z,13.80
2019-01-24T00:27:00.360Z,14.20
2019-01-24T00:31:36.144Z,12.23
2019-01-24T00:36:11.909Z,13.73
2019-01-24T00:40:47.684Z,12.00
2019-01-24T00:45:23.857Z,13.77
2019-01-24T00:49:59.636Z,14.27
2019-01-24T00:54:35.422Z,13.00
2019-01-24T00:59:11.211Z,13.93
2019-01-24T01:03:46.978Z,14.17
2019-01-24T01:08:22.789Z,14.67
2019-01-24T01:12:58.555Z,12.40
2019-01-24T01:17:34.342Z,11.70
2019-01-24T01:22:10.106Z,11.40
2019-01-24T01:26:45.910Z,11.47
2019-01-24T01:31:21.682Z,12.07
2019-01-24T01:35:57.519Z,11.47
2019-01-24T01:40:33.293Z,11.77
2019-01-24T01:45:13.513Z,11.20
2019-01-24T01:49:49.280Z,10.70
2019-01-24T01:54:25.071Z,11.67
2019-01-24T01:59:00.842Z,10.30
2019-01-24T02:03:36.613Z,9.47
2019-01-24T02:08:12.380Z,10.03
2019-01-24T02:12:48.932Z,12.87
2019-01-24T02:17:24.693Z,9.80
2019-01-24T02:22:00.476Z,11.30
2019-01-24T02:26:36.266Z,10.27
2019-01-24T02:31:12.060Z,11.13
2019-01-24T02:35:47.838Z,11.87
2019-01-24T02:40:23.610Z,11.83
2019-01-24T02:44:59.375Z,10.87
2019-01-24T02:49:35.164Z,10.47
2019-01-24T02:54:10.942Z,12.17
2019-01-24T02:58:46.731Z,11.23
2019-01-24T03:03:22.570Z,10.17
2019-01-24T03:07:58.356Z,11.47
2019-01-24T03:12:34.194Z,11.77
2019-01-24T03:17:10.013Z,10.27
2019-01-24T03:21:45.769Z,10.50
2019-01-24T03:26:21.544Z,9.87
2019-01-24T03:30:57.320Z,12.00
2019-01-24T03:35:33.175Z,10.87
2019-01-24T03:40:11.028Z,9.87
2019-01-24T03:44:46.818Z,10.10
2019-01-24T03:49:22.593Z,11.23
2019-01-24T03:53:58.388Z,9.83
2019-01-24T03:58:34.156Z,10.27
2019-01-24T04:03:09.941Z,11.43
2019-01-24T04:07:45.705Z,9.00
2019-01-24T04:12:21.503Z,10.47
2019-01-24T04:16:57.382Z,10.10
2019-01-24T04:21:33.266Z,9.97
2019-01-24T04:26:09.036Z,9.03
2019-01-24T04:30:44.841Z,9.60
2019-01-24T04:35:21.201Z,10.63
2019-01-24T04:39:56.977Z,10.67
2019-01-24T04:44:32.742Z,9.03
2019-01-24T04:49:08.732Z,11.00
2019-01-24T04:53:44.821Z,9.83
2019-01-24T04:58:20.621Z,8.87
2019-01-24T05:02:56.893Z,8.77
2019-01-24T05:07:32.684Z,9.33
2019-01-24T05:12:08.453Z,9.10
2019-01-24T05:16:44.238Z,10.73
2019-01-24T05:21:20.025Z,8.53
2019-01-24T05:25:55.857Z,9.03
2019-01-24T05:30:31.645Z,9.13
2019-01-24T05:35:09.021Z,7.70
2019-01-24T05:39:44.804Z,8.60
2019-01-24T05:44:20.586Z,8.23
2019-01-24T05:48:56.349Z,7.63
2019-01-24T05:53:32.176Z,10.63
2019-01-24T05:58:08.030Z,9.23
2019-01-24T06:02:43.900Z,7.70
2019-01-24T06:07:20.760Z,6.73
2019-01-24T06:11:56.549Z,6.80
2019-01-24T06:16:32.308Z,6.97
2019-01-24T06:21:08.096Z,8.13
2019-01-24T06:25:43.849Z,12.87
2019-01-24T06:30:20.696Z,6.77
2019-01-24T06:34:56.455Z,7.07
2019-01-24T06:39:32.244Z,7.13
2019-01-24T06:44:08.004Z,10.33
2019-01-24T06:48:43.793Z,7.73
2019-01-24T06:53:19.561Z,9.20
2019-01-24T06:57:55.790Z,6.97
2019-01-24T07:02:31.554Z,7.73
2019-01-24T07:07:07.333Z,7.07
2019-01-24T07:11:43.108Z,8.33
2019-01-24T07:16:18.899Z,7.13
2019-01-24T07:20:54.685Z,6.80
2019-01-24T07:25:31.156Z,6.57
2019-01-24T07:30:09.236Z,7.00
2019-01-24T07:34:45.040Z,6.10
2019-01-24T07:39:20.792Z,6.63
2019-01-24T07:43:56.608Z,6.60
2019-01-24T07:48:32.408Z,6.13
2019-01-24T07:53:09.153Z,5.80
2019-01-24T07:57:44.925Z,9.40
2019-01-24T08:02:20.717Z,5.83
2019-01-24T08:06:56.487Z,6.00
2019-01-24T08:11:32.275Z,7.00
2019-01-24T08:16:08.045Z,7.03
2019-01-24T08:20:44.069Z,7.37
2019-01-24T08:25:20.561Z,6.13
2019-01-24T08:29:56.345Z,7.23
2019-01-24T08:34:32.112Z,5.63
2019-01-24T08:39:10.191Z,6.27
2019-01-24T08:43:45.947Z,5.97
2019-01-24T08:48:21.737Z,5.97
2019-01-24T08:52:57.510Z,6.43
2019-01-24T08:57:33.308Z,4.97
2019-01-24T09:02:09.068Z,5.33
2019-01-24T09:06:44.849Z,5.27
2019-01-24T09:11:20.660Z,4.93
2019-01-24T09:15:56.439Z,4.73
2019-01-24T09:20:32.193Z,5.23
2019-01-24T09:25:08.936Z,5.20
2019-01-24T09:29:44.696Z,4.87
2019-01-24T09:34:20.470Z,5.10
2019-01-24T09:38:56.235Z,5.13
2019-01-24T09:43:32.088Z,6.17
2019-01-24T09:48:08.368Z,5.10
2019-01-24T09:52:44.193Z,6.07
2019-01-24T09:57:19.956Z,5.00
2019-01-24T10:01:55.724Z,5.47
2019-01-24T10:06:36.223Z,6.87
2019-01-24T10:11:08.990Z,6.83
2019-01-24T10:15:44.752Z,8.13
2019-01-24T10:20:22.103Z,5.50
2019-01-24T10:24:57.937Z,4.23
2019-01-24T10:29:33.718Z,4.30
2019-01-24T10:34:11.387Z,5.03
2019-01-24T10:38:47.173Z,5.20
2019-01-24T10:43:22.948Z,5.50
2019-01-24T10:47:59.510Z,4.87
2019-01-24T10:52:35.273Z,4.63
2019-01-24T10:57:11.067Z,19.40
2019-01-24T11:01:46.833Z,6.17
2019-01-24T11:06:22.600Z,5.60
2019-01-24T11:10:58.353Z,5.30
2019-01-24T11:15:35.429Z,4.30
2019-01-24T11:20:13.789Z,4.10
2019-01-24T11:24:49.605Z,4.90
2019-01-24T11:29:25.423Z,4.63
2019-01-24T11:34:01.237Z,4.40
2019-01-24T11:38:36.999Z,5.87
2019-01-24T11:43:12.792Z,5.33
2019-01-24T11:47:48.560Z,5.40
2019-01-24T11:52:24.400Z,4.70
2019-01-24T11:57:00.152Z,4.63
2019-01-24T12:01:35.952Z,5.53
2019-01-24T12:06:11.710Z,4.60
2019-01-24T12:10:47.526Z,4.43
2019-01-24T12:15:25.012Z,5.23
2019-01-24T12:20:00.805Z,4.57
2019-01-24T12:24:36.599Z,4.23
2019-01-24T12:29:12.373Z,4.57
2019-01-24T12:33:48.125Z,4.03
2019-01-24T12:38:23.912Z,5.77
2019-01-24T12:42:59.677Z,3.33
2019-01-24T12:47:35.464Z,4.13
2019-01-24T12:52:11.221Z,5.63
2019-01-24T12:56:47.026Z,5.20
2019-01-24T13:01:22.785Z,5.70
2019-01-24T13:05:58.567Z,5.40
2019-01-24T13:10:34.336Z,4.67
2019-01-24T13:15:11.214Z,4.33
2019-01-24T13:19:46.964Z,4.77
2019-01-24T13:24:22.746Z,3.33
2019-01-24T13:28:58.516Z,4.70
2019-01-24T13:33:34.300Z,4.17
2019-01-24T13:38:10.059Z,4.77
2019-01-24T13:42:45.853Z,5.17
2019-01-24T13:47:21.704Z,5.27
2019-01-24T13:51:57.477Z,6.80
2019-01-24T13:56:33.236Z,7.90
2019-01-24T14:01:09.141Z,8.27
2019-01-24T14:05:46.702Z,8.70
2019-01-24T14:10:22.472Z,7.47
2019-01-24T14:14:58.247Z,9.03
2019-01-24T14:19:34.049Z,9.40
2019-01-24T14:24:09.804Z,9.27
2019-01-24T14:28:46.832Z,11.30
2019-01-24T14:33:22.619Z,15.77
2019-01-24T14:37:58.708Z,17.97
2019-01-24T14:42:34.476Z,20.17
2019-01-24T14:47:10.262Z,19.67
2019-01-24T14:51:46.013Z,15.50
2019-01-24T14:56:21.786Z,15.43
2019-01-24T15:01:02.569Z,13.23
2019-01-24T15:05:38.409Z,14.50
2019-01-24T15:10:15.442Z,15.77
2019-01-24T15:14:51.237Z,16.43
2019-01-24T15:19:27.009Z,17.77
2019-01-24T15:24:02.805Z,17.23
2019-01-24T15:28:38.571Z,15.20
2019-01-24T15:33:14.357Z,19.37
2019-01-24T15:37:54.442Z,19.33
2019-01-24T15:42:27.904Z,19.83
2019-01-24T15:47:03.676Z,21.20
2019-01-24T15:51:39.471Z,21.70
2019-01-24T15:56:15.232Z,21.57
2019-01-24T16:00:51.031Z,24.90
2019-01-24T16:05:27.000Z,24.63
2019-01-24T16:10:02.829Z,22.83
2019-01-24T16:14:38.602Z,24.13
2019-01-24T16:19:14.380Z,28.77
2019-01-24T16:23:50.148Z,29.30
2019-01-24T16:28:25.929Z,29.53
2019-01-24T16:33:02.782Z,25.20
2019-01-24T16:37:38.629Z,29.53
2019-01-24T16:42:14.400Z,28.23
2019-01-24T16:46:50.201Z,27.57
2019-01-24T16:51:26.017Z,26.33
2019-01-24T16:56:01.813Z,26.57
2019-01-24T17:00:44.132Z,26.83
2019-01-24T17:05:20.316Z,29.67
2019-01-24T17:09:56.093Z,27.17
2019-01-24T17:14:31.933Z,25.70
2019-01-24T17:19:08.738Z,27.43
2019-01-24T17:23:44.763Z,26.00
2019-01-24T17:28:20.528Z,25.97
2019-01-24T17:32:56.726Z,27.20
2019-01-24T17:37:32.517Z,27.13
2019-01-24T17:42:08.321Z,25.17
2019-01-24T17:46:44.090Z,27.27
2019-01-24T17:51:19.877Z,24.40
2019-01-24T17:55:55.650Z,27.70
2019-01-24T18:00:33.953Z,26.93
2019-01-24T18:05:10.679Z,26.93
2019-01-24T18:09:46.443Z,30.33
2019-01-24T18:14:22.240Z,24.07
2019-01-24T18:18:58.548Z,26.00
2019-01-24T18:23:34.329Z,23.67
2019-01-24T18:28:12.284Z,27.70
2019-01-24T18:32:48.360Z,25.47
2019-01-24T18:37:24.184Z,27.13
2019-01-24T18:42:00.033Z,27.40
2019-01-24T18:46:39.481Z,26.03
2019-01-24T18:51:15.261Z,25.20
2019-01-24T18:55:51.068Z,27.70
2019-01-24T19:00:36.401Z,26.07
2019-01-24T19:05:13.439Z,25.83
2019-01-24T19:09:49.204Z,25.07
2019-01-24T19:14:25.003Z,26.20
2019-01-24T19:19:02.282Z,24.90
2019-01-24T19:23:38.092Z,26.10
2019-01-24T19:28:16.670Z,25.67
2019-01-24T19:32:53.884Z,25.13
2019-01-24T19:37:29.656Z,27.10
2019-01-24T19:42:05.745Z,25.83
2019-01-24T19:46:41.531Z,27.43
2019-01-24T19:51:17.316Z,27.13
2019-01-24T19:55:53.077Z,26.10
2019-01-24T20:00:30.929Z,27.13
2019-01-24T20:05:08.501Z,26.03
2019-01-24T20:09:44.277Z,27.63
2019-01-24T20:14:20.044Z,27.17
2019-01-24T20:18:55.840Z,28.93
2019-01-24T20:23:31.647Z,28.93
2019-01-24T20:28:07.436Z,26.00
2019-01-24T20:32:43.292Z,28.83
2019-01-24T20:37:19.091Z,27.27
2019-01-24T20:41:54.869Z,29.43
2019-01-24T20:46:30.675Z,29.57
2019-01-24T20:51:06.461Z,31.07
2019-01-24T20:55:42.261Z,28.77
2019-01-24T21:00:20.613Z,27.90
2019-01-24T21:04:56.422Z,26.07
2019-01-24T21:09:32.271Z,26.57
2019-01-24T21:14:08.069Z,28.87
2019-01-24T21:18:43.861Z,25.63
2019-01-24T21:23:19.725Z,25.97
2019-01-24T21:27:55.824Z,27.37
2019-01-24T21:32:31.628Z,25.33
2019-01-24T21:37:07.407Z,26.10
2019-01-24T21:41:43.214Z,25.33
2019-01-24T21:46:18.981Z,29.37
2019-01-24T21:50:54.770Z,27.23
2019-01-24T21:55:31.044Z,24.40
2019-01-24T22:00:09.125Z,26.87
2019-01-24T22:04:44.897Z,27.37
2019-01-24T22:09:20.688Z,27.50
2019-01-24T22:13:56.452Z,24.27
2019-01-24T22:18:32.241Z,24.30
2019-01-24T22:23:08.012Z,26.67
2019-01-24T22:27:43.813Z,24.30
2019-01-24T22:32:19.616Z,24.67
2019-01-24T22:36:55.427Z,25.93
2019-01-24T22:41:31.191Z,24.03
2019-01-24T22:46:06.980Z,22.47
2019-01-24T22:50:42.745Z,23.57
2019-01-24T22:55:18.845Z,26.77
2019-01-24T22:59:54.623Z,27.57
2019-01-24T23:04:30.393Z,24.73
2019-01-24T23:09:09.925Z,24.30
2019-01-24T23:13:45.722Z,26.20
2019-01-24T23:18:21.480Z,22.73
2019-01-24T23:22:57.271Z,24.43
2019-01-24T23:27:33.048Z,24.27
2019-01-24T23:32:08.844Z,24.87
2019-01-24T23:36:44.679Z,23.00
2019-01-24T23:41:20.457Z,24.20
2019-01-24T23:45:56.217Z,24.43
2019-01-24T23:50:32.017Z,24.73
2019-01-24T23:55:07.800Z,23.37
2019-01-24T23:59:43.580Z,27.27
